sensor_id;sensor_type;location;lat;lon;timestamp;pressure;altitude;pressure_sealevel;temperature;humidity
53089;BME280;38968;47.696;17.540;2023-03-08T00:04:14;9898248;;;7.79;69.97754
53089;BME280;38968;47.696;17.540;2023-03-08T00:09:13;9899341;;;7.53;70.20703
53089;BME280;38968;47.696;17.540;2023-03-08T00:14:13;9899930;;;7.62;69.28125
53089;BME280;38968;47.696;17.540;2023-03-08T00:19:14;9900812;;;7.55;69.84863
53089;BME280;38968;47.696;17.540;2023-03-08T00:24:14;9901725;;;7.31;69.34473
53089;BME280;38968;47.696;17.540;2023-03-08T00:29:14;9901234;;;7.61;68.98438
53089;BME280;38968;47.696;17.540;2023-03-08T00:34:14;9901819;;;7.72;68.67188
53089;BME280;38968;47.696;17.540;2023-03-08T00:39:14;9901162;;;7.53;68.35742
53089;BME280;38968;47.696;17.540;2023-03-08T00:44:14;9901259;;;7.47;68.48535
53089;BME280;38968;47.696;17.540;2023-03-08T00:49:14;9900158;;;7.34;68.99902
53089;BME280;38968;47.696;17.540;2023-03-08T00:54:14;9900244;;;7.35;69.06836
53089;BME280;38968;47.696;17.540;2023-03-08T00:59:13;9899971;;;7.41;69.14551
53089;BME280;38968;47.696;17.540;2023-03-08T01:04:14;9899983;;;7.35;69.3291
53089;BME280;38968;47.696;17.540;2023-03-08T01:09:13;9899881;;;7.43;68.82031
53089;BME280;38968;47.696;17.540;2023-03-08T01:14:14;9901105;;;7.38;68.94824
53089;BME280;38968;47.696;17.540;2023-03-08T01:19:14;9901442;;;7.43;68.74121
53089;BME280;38968;47.696;17.540;2023-03-08T01:24:14;9901779;;;7.48;68.63574
53089;BME280;38968;47.696;17.540;2023-03-08T01:29:13;9901498;;;7.59;68.67578
53089;BME280;38968;47.696;17.540;2023-03-08T01:34:14;9902092;;;7.64;68.22949
53089;BME280;38968;47.696;17.540;2023-03-08T01:39:14;9903470;;;7.69;67.72754
53089;BME280;38968;47.696;17.540;2023-03-08T01:44:18;9903742;;;7.63;66.75098
53089;BME280;38968;47.696;17.540;2023-03-08T01:49:15;9904169;;;7.67;66.89355
53089;BME280;38968;47.696;17.540;2023-03-08T01:54:16;9903933;;;7.55;65.30762
53089;BME280;38968;47.696;17.540;2023-03-08T01:59:14;9903914;;;7.19;65.50391
53089;BME280;38968;47.696;17.540;2023-03-08T02:04:14;9904872;;;7.16;65.37402
53089;BME280;38968;47.696;17.540;2023-03-08T02:09:13;9905081;;;6.95;65.35449
53089;BME280;38968;47.696;17.540;2023-03-08T02:14:14;9905438;;;6.9;66.70605
53089;BME280;38968;47.696;17.540;2023-03-08T02:19:16;9906595;;;6.71;66.29102
53089;BME280;38968;47.696;17.540;2023-03-08T02:24:19;9906477;;;6.33;67.44531
53089;BME280;38968;47.696;17.540;2023-03-08T02:29:13;9906712;;;6.5;68.12793
53089;BME280;38968;47.696;17.540;2023-03-08T02:34:14;9906580;;;6.21;68.61523
53089;BME280;38968;47.696;17.540;2023-03-08T02:39:14;9906584;;;6.16;69.30859
53089;BME280;38968;47.696;17.540;2023-03-08T02:44:14;9907167;;;6.34;70.76172
53089;BME280;38968;47.696;17.540;2023-03-08T02:49:14;9907238;;;6.47;69.91113
53089;BME280;38968;47.696;17.540;2023-03-08T02:54:13;9906721;;;6.43;69.81641
53089;BME280;38968;47.696;17.540;2023-03-08T02:59:14;9907039;;;6.62;69.98242
53089;BME280;38968;47.696;17.540;2023-03-08T03:04:14;9908362;;;6.46;69.8418
53089;BME280;38968;47.696;17.540;2023-03-08T03:09:13;9908353;;;6.52;69.75
53089;BME280;38968;47.696;17.540;2023-03-08T03:14:14;9908881;;;6.46;70.50977
53089;BME280;38968;47.696;17.540;2023-03-08T03:19:14;9908777;;;6.59;70.22656
53089;BME280;38968;47.696;17.540;2023-03-08T03:24:14;9908752;;;6.74;70.91895
53089;BME280;38968;47.696;17.540;2023-03-08T03:29:14;9910173;;;6.5;71.67188
53089;BME280;38968;47.696;17.540;2023-03-08T03:34:14;9911166;;;6.81;70.99707
53089;BME280;38968;47.696;17.540;2023-03-08T03:39:13;9912817;;;6.78;71.46875
53089;BME280;38968;47.696;17.540;2023-03-08T03:44:14;9913130;;;7;70.92676
53089;BME280;38968;47.696;17.540;2023-03-08T03:49:14;9914065;;;7.1;70.54785
53089;BME280;38968;47.696;17.540;2023-03-08T03:54:14;9913232;;;6.9;71.05664
53089;BME280;38968;47.696;17.540;2023-03-08T03:59:14;9914766;;;7.07;70.50781
53089;BME280;38968;47.696;17.540;2023-03-08T04:04:14;9914739;;;7.22;70.21387
53089;BME280;38968;47.696;17.540;2023-03-08T04:09:15;9914578;;;7.15;70.50977
53089;BME280;38968;47.696;17.540;2023-03-08T04:14:14;9915802;;;7.08;70.82715
53089;BME280;38968;47.696;17.540;2023-03-08T04:19:14;9915867;;;7.21;70.66699
53089;BME280;38968;47.696;17.540;2023-03-08T04:24:13;9915673;;;7.34;70.13184
53089;BME280;38968;47.696;17.540;2023-03-08T04:29:14;9914793;;;7.42;69.82813
53089;BME280;38968;47.696;17.540;2023-03-08T04:34:13;9914686;;;7.54;69.76758
53089;BME280;38968;47.696;17.540;2023-03-08T04:39:14;9915430;;;7.74;69.32227
53089;BME280;38968;47.696;17.540;2023-03-08T04:44:14;9915273;;;7.65;68.94531
53089;BME280;38968;47.696;17.540;2023-03-08T04:49:14;9914500;;;7.61;68.84863
53089;BME280;38968;47.696;17.540;2023-03-08T04:54:13;9915987;;;7.53;69.31152
53089;BME280;38968;47.696;17.540;2023-03-08T04:59:14;9913912;;;7.49;69.38574
53089;BME280;38968;47.696;17.540;2023-03-08T05:04:14;9916200;;;7.29;69.72754
53089;BME280;38968;47.696;17.540;2023-03-08T05:09:13;9917848;;;7.28;70.19141
53089;BME280;38968;47.696;17.540;2023-03-08T05:14:14;9918473;;;7.16;69.86523
53089;BME280;38968;47.696;17.540;2023-03-08T05:19:14;9919659;;;7.34;69.61133
53089;BME280;38968;47.696;17.540;2023-03-08T05:24:14;9919764;;;7.22;69.25195
53089;BME280;38968;47.696;17.540;2023-03-08T05:29:14;9918723;;;7.24;69.27734
53089;BME280;38968;47.696;17.540;2023-03-08T05:34:13;9919070;;;7.23;68.68555
53089;BME280;38968;47.696;17.540;2023-03-08T05:39:14;9919114;;;7.49;68.95508
53089;BME280;38968;47.696;17.540;2023-03-08T05:44:13;9918848;;;7.53;67.46094
53089;BME280;38968;47.696;17.540;2023-03-08T05:49:14;9919700;;;7.62;67.85059
53089;BME280;38968;47.696;17.540;2023-03-08T05:54:14;9918923;;;7.61;67.67969
53089;BME280;38968;47.696;17.540;2023-03-08T05:59:14;9919848;;;7.75;67.4873
53089;BME280;38968;47.696;17.540;2023-03-08T06:04:14;9919503;;;7.75;67.30371
53089;BME280;38968;47.696;17.540;2023-03-08T06:09:13;9919577;;;7.83;66.96387
53089;BME280;38968;47.696;17.540;2023-03-08T06:14:13;9920277;;;7.8;65.10645
53089;BME280;38968;47.696;17.540;2023-03-08T06:19:14;9920755;;;8.02;64.10547
53089;BME280;38968;47.696;17.540;2023-03-08T06:24:14;9922027;;;8.18;62.56836
53089;BME280;38968;47.696;17.540;2023-03-08T06:29:13;9922156;;;8.42;61.87305
53089;BME280;38968;47.696;17.540;2023-03-08T06:34:14;9922652;;;8.55;62.71387
53089;BME280;38968;47.696;17.540;2023-03-08T06:39:14;9922938;;;8.43;62.99219
53089;BME280;38968;47.696;17.540;2023-03-08T06:44:14;9922840;;;8.47;61.77832
53089;BME280;38968;47.696;17.540;2023-03-08T06:49:13;9923741;;;8.74;58.61133
53089;BME280;38968;47.696;17.540;2023-03-08T06:54:14;9923398;;;8.72;59.52148
53089;BME280;38968;47.696;17.540;2023-03-08T06:59:13;9924389;;;8.95;60.22559
53089;BME280;38968;47.696;17.540;2023-03-08T07:04:13;9923669;;;9.45;59.53027
53089;BME280;38968;47.696;17.540;2023-03-08T07:09:13;9924466;;;9.75;57.98047
53089;BME280;38968;47.696;17.540;2023-03-08T07:14:14;9923945;;;10.07;55.89258
53089;BME280;38968;47.696;17.540;2023-03-08T07:19:14;9925133;;;10.19;54.61328
53089;BME280;38968;47.696;17.540;2023-03-08T07:24:13;9924680;;;10.27;53.31543
53089;BME280;38968;47.696;17.540;2023-03-08T07:29:13;9925545;;;10.6;52.78125
53089;BME280;38968;47.696;17.540;2023-03-08T07:34:14;9925658;;;10.52;52.47266
53089;BME280;38968;47.696;17.540;2023-03-08T07:39:15;9925089;;;10.98;49.79102
53089;BME280;38968;47.696;17.540;2023-03-08T07:44:13;9925659;;;11.11;48.77051
53089;BME280;38968;47.696;17.540;2023-03-08T07:49:14;9926173;;;11.42;48.79297
53089;BME280;38968;47.696;17.540;2023-03-08T07:54:14;9925605;;;11.56;46.92969
53089;BME280;38968;47.696;17.540;2023-03-08T07:59:14;9926028;;;11.88;47.75977
53089;BME280;38968;47.696;17.540;2023-03-08T08:04:14;9925058;;;12.16;46.08301
53089;BME280;38968;47.696;17.540;2023-03-08T08:09:14;9924144;;;12.28;44.17773
53089;BME280;38968;47.696;17.540;2023-03-08T08:14:14;9924147;;;12.51;43.3916
53089;BME280;38968;47.696;17.540;2023-03-08T08:19:13;9922389;;;13.88;40.55566
53089;BME280;38968;47.696;17.540;2023-03-08T08:24:13;9921125;;;15.5;37.23047
53089;BME280;38968;47.696;17.540;2023-03-08T08:29:13;9922026;;;15.27;33.83984
53089;BME280;38968;47.696;17.540;2023-03-08T08:34:14;9921167;;;14.67;33.86328
53089;BME280;38968;47.696;17.540;2023-03-08T08:39:14;9921217;;;14.36;34.84082
53089;BME280;38968;47.696;17.540;2023-03-08T08:44:14;9922339;;;14.39;34.33105
53089;BME280;38968;47.696;17.540;2023-03-08T08:49:14;9922177;;;14.37;33.97949
53089;BME280;38968;47.696;17.540;2023-03-08T08:54:14;9922183;;;14.56;33.62109
53089;BME280;38968;47.696;17.540;2023-03-08T08:59:14;9920798;;;14.9;34.05566
53089;BME280;38968;47.696;17.540;2023-03-08T09:04:14;9920350;;;14.73;33.79785
53089;BME280;38968;47.696;17.540;2023-03-08T09:09:14;9920162;;;14.56;32.73633
53089;BME280;38968;47.696;17.540;2023-03-08T09:14:13;9919702;;;14.61;32.49512
53089;BME280;38968;47.696;17.540;2023-03-08T09:19:14;9918750;;;14.59;32.76172
53089;BME280;38968;47.696;17.540;2023-03-08T09:24:14;9918584;;;14.94;32.40234
53089;BME280;38968;47.696;17.540;2023-03-08T09:29:14;9919022;;;15.31;33.30566
53089;BME280;38968;47.696;17.540;2023-03-08T09:34:14;9917817;;;15.62;33.29395
53089;BME280;38968;47.696;17.540;2023-03-08T09:39:14;9918518;;;15.8;33.03906
53089;BME280;38968;47.696;17.540;2023-03-08T09:49:16;9917640;;;16.14;34.23438
53089;BME280;38968;47.696;17.540;2023-03-08T09:54:19;9918947;;;16.33;32.9502
53089;BME280;38968;47.696;17.540;2023-03-08T09:59:22;9918166;;;16.47;31.52051
53089;BME280;38968;47.696;17.540;2023-03-08T10:09:36;9915484;;;16.72;31.69043
53089;BME280;38968;47.696;17.540;2023-03-08T10:14:28;9915506;;;16.19;31.16016
53089;BME280;38968;47.696;17.540;2023-03-08T10:19:15;9915700;;;16.48;31.43848
53089;BME280;38968;47.696;17.540;2023-03-08T10:24:38;9916431;;;16.43;31.46973
53089;BME280;38968;47.696;17.540;2023-03-08T10:29:14;9917586;;;16.41;30.62598
53089;BME280;38968;47.696;17.540;2023-03-08T10:34:19;9918188;;;16.27;29.88965
53089;BME280;38968;47.696;17.540;2023-03-08T10:39:14;9918589;;;16.34;31.35938
53089;BME280;38968;47.696;17.540;2023-03-08T10:44:29;9918964;;;15.61;32.38184
53089;BME280;38968;47.696;17.540;2023-03-08T10:49:16;9918044;;;15.69;31.41797
53089;BME280;38968;47.696;17.540;2023-03-08T10:54:14;9918945;;;15.46;32.12598
53089;BME280;38968;47.696;17.540;2023-03-08T10:59:19;9918342;;;15.44;31.21289
53089;BME280;38968;47.696;17.540;2023-03-08T11:04:18;9916398;;;15.11;31.9834
53089;BME280;38968;47.696;17.540;2023-03-08T11:09:25;9916191;;;15.54;31.9209
53089;BME280;38968;47.696;17.540;2023-03-08T11:14:14;9914198;;;15.48;31.56641
53089;BME280;38968;47.696;17.540;2023-03-08T11:19:31;9913073;;;15.44;30.9209
53089;BME280;38968;47.696;17.540;2023-03-08T11:29:20;9909253;;;15.18;31.07715
53089;BME280;38968;47.696;17.540;2023-03-08T11:34:44;9907866;;;15.15;31.48438
53089;BME280;38968;47.696;17.540;2023-03-08T11:54:28;9899909;;;16.09;31.98438
53089;BME280;38968;47.696;17.540;2023-03-08T11:59:33;9897552;;;16.22;31.02148
53089;BME280;38968;47.696;17.540;2023-03-08T12:21:17;9893239;;;16.69;32.08691
53089;BME280;38968;47.696;17.540;2023-03-08T12:26:10;9892645;;;16.19;34.31934
53089;BME280;38968;47.696;17.540;2023-03-08T12:31:26;9890602;;;16.53;34.5459
53089;BME280;38968;47.696;17.540;2023-03-08T12:36:07;9888156;;;16.35;36.21484
53089;BME280;38968;47.696;17.540;2023-03-08T12:41:24;9886591;;;17.06;35.03223
53089;BME280;38968;47.696;17.540;2023-03-08T12:46:09;9884555;;;17.08;34.92871
53089;BME280;38968;47.696;17.540;2023-03-08T13:01:22;9883455;;;15.66;39.60059
53089;BME280;38968;47.696;17.540;2023-03-08T13:11:10;9881105;;;15.77;40.36914
53089;BME280;38968;47.696;17.540;2023-03-08T13:21:19;9883953;;;16.02;40.50879
53089;BME280;38968;47.696;17.540;2023-03-08T13:26:20;9884345;;;15.63;41.80176
53089;BME280;38968;47.696;17.540;2023-03-08T13:31:20;9882591;;;15.46;42.28711
53089;BME280;38968;47.696;17.540;2023-03-08T13:36:18;9880975;;;15.53;42.85156
53089;BME280;38968;47.696;17.540;2023-03-08T13:41:07;9880652;;;15.47;43.02246
53089;BME280;38968;47.696;17.540;2023-03-08T13:46:09;9880731;;;15.81;42.44824
53089;BME280;38968;47.696;17.540;2023-03-08T13:51:07;9879820;;;15.39;43.89844
53089;BME280;38968;47.696;17.540;2023-03-08T13:56:18;9877977;;;15.39;44.06152
53089;BME280;38968;47.696;17.540;2023-03-08T14:01:14;9878259;;;15.68;43.42578
53089;BME280;38968;47.696;17.540;2023-03-08T14:06:25;9880067;;;15.27;44.25781
53089;BME280;38968;47.696;17.540;2023-03-08T14:11:12;9879931;;;15.51;44.18945
53089;BME280;38968;47.696;17.540;2023-03-08T14:16:08;9879820;;;15.39;44.43359
53089;BME280;38968;47.696;17.540;2023-03-08T14:21:18;9878792;;;15.5;44.31738
53089;BME280;38968;47.696;17.540;2023-03-08T14:26:27;9878045;;;15.74;44.02734
53089;BME280;38968;47.696;17.540;2023-03-08T14:31:23;9877086;;;15.73;43.97949
53089;BME280;38968;47.696;17.540;2023-03-08T14:36:08;9877119;;;15.83;43.8252
53089;BME280;38968;47.696;17.540;2023-03-08T14:41:07;9876869;;;15.96;43.65234
53089;BME280;38968;47.696;17.540;2023-03-08T14:46:07;9875352;;;15.69;44.39453
53089;BME280;38968;47.696;17.540;2023-03-08T14:56:14;9872997;;;16.26;43.36719
53089;BME280;38968;47.696;17.540;2023-03-08T15:01:07;9872174;;;16.17;43.58008
53089;BME280;38968;47.696;17.540;2023-03-08T15:06:12;9871267;;;16.07;43.74414
53089;BME280;38968;47.696;17.540;2023-03-08T15:11:07;9870500;;;15.88;44.40137
53089;BME280;38968;47.696;17.540;2023-03-08T15:16:10;9871304;;;15.7;45.24512
53089;BME280;38968;47.696;17.540;2023-03-08T15:21:11;9870106;;;15.65;45.71777
53089;BME280;38968;47.696;17.540;2023-03-08T15:26:12;9868662;;;15.72;45.75977
53089;BME280;38968;47.696;17.540;2023-03-08T15:31:08;9869513;;;15.45;46.54688
53089;BME280;38968;47.696;17.540;2023-03-08T15:36:15;9868698;;;15.66;46.14941
53089;BME280;38968;47.696;17.540;2023-03-08T15:41:11;9867907;;;15.5;46.64453
53089;BME280;38968;47.696;17.540;2023-03-08T15:46:14;9867862;;;15.58;46.52441
53089;BME280;38968;47.696;17.540;2023-03-08T15:51:17;9866619;;;15.75;46.08984
53089;BME280;38968;47.696;17.540;2023-03-08T15:56:07;9867217;;;15.47;46.83984
53089;BME280;38968;47.696;17.540;2023-03-08T16:01:07;9864941;;;15.62;46.44824
53089;BME280;38968;47.696;17.540;2023-03-08T16:06:08;9865900;;;15.63;46.47266
53089;BME280;38968;47.696;17.540;2023-03-08T16:11:09;9864977;;;15.4;47.01758
53089;BME280;38968;47.696;17.540;2023-03-08T16:16:08;9866114;;;15.41;46.94922
53089;BME280;38968;47.696;17.540;2023-03-08T16:21:08;9864642;;;15.53;46.76367
53089;BME280;38968;47.696;17.540;2023-03-08T16:26:09;9864769;;;15.61;46.63281
53089;BME280;38968;47.696;17.540;2023-03-08T16:31:07;9863988;;;15.6;46.59668
53089;BME280;38968;47.696;17.540;2023-03-08T16:36:08;9864677;;;15.62;46.37793
53089;BME280;38968;47.696;17.540;2023-03-08T16:41:07;9866395;;;15.54;46.28711
53089;BME280;38968;47.696;17.540;2023-03-08T16:46:07;9864720;;;15.55;46.50977
53089;BME280;38968;47.696;17.540;2023-03-08T16:51:09;9864999;;;15.52;46.50684
53089;BME280;38968;47.696;17.540;2023-03-08T16:56:07;9864414;;;15.62;46.27344
53089;BME280;38968;47.696;17.540;2023-03-08T17:01:15;9864241;;;15.61;46.16797
53089;BME280;38968;47.696;17.540;2023-03-08T17:06:08;9865581;;;15.42;46.64746
53089;BME280;38968;47.696;17.540;2023-03-08T17:11:24;9863295;;;15.43;46.53223
53089;BME280;38968;47.696;17.540;2023-03-08T17:16:11;9864783;;;15.28;46.92383
53089;BME280;38968;47.696;17.540;2023-03-08T17:21:08;9863311;;;15.4;46.60938
53089;BME280;38968;47.696;17.540;2023-03-08T17:26:08;9864121;;;15.37;46.71191
53089;BME280;38968;47.696;17.540;2023-03-08T17:31:08;9864219;;;15.5;46.40039
53089;BME280;38968;47.696;17.540;2023-03-08T17:36:08;9863730;;;15.28;46.70313
53089;BME280;38968;47.696;17.540;2023-03-08T17:41:12;9864590;;;15.16;46.68945
53089;BME280;38968;47.696;17.540;2023-03-08T17:46:18;9863962;;;15.18;46.34375
53089;BME280;38968;47.696;17.540;2023-03-08T17:51:09;9862827;;;15.48;45.17578
53089;BME280;38968;47.696;17.540;2023-03-08T17:56:10;9863288;;;15.59;44.18555
53089;BME280;38968;47.696;17.540;2023-03-08T18:01:15;9863720;;;15.3;43.60938
53089;BME280;38968;47.696;17.540;2023-03-08T18:06:13;9863473;;;15.42;42.98145
53089;BME280;38968;47.696;17.540;2023-03-08T18:11:07;9861811;;;15.72;41.92676
53089;BME280;38968;47.696;17.540;2023-03-08T18:16:08;9863412;;;15.83;41.17871
53089;BME280;38968;47.696;17.540;2023-03-08T18:21:07;9861433;;;15.76;41.21875
53089;BME280;38968;47.696;17.540;2023-03-08T18:26:08;9861775;;;16.07;40.39648
53089;BME280;38968;47.696;17.540;2023-03-08T18:31:12;9863887;;;15.62;40.75195
53089;BME280;38968;47.696;17.540;2023-03-08T18:36:07;9863297;;;15.73;40.55176
53089;BME280;38968;47.696;17.540;2023-03-08T18:41:15;9864300;;;15.36;41.20605
53089;BME280;38968;47.696;17.540;2023-03-08T18:46:10;9863655;;;15.72;40.72559
53089;BME280;38968;47.696;17.540;2023-03-08T18:51:08;9862827;;;15.48;41.03027
53089;BME280;38968;47.696;17.540;2023-03-08T18:56:08;9863259;;;15.49;41.18262
53089;BME280;38968;47.696;17.540;2023-03-08T19:01:13;9864482;;;15.5;40.98535
53089;BME280;38968;47.696;17.540;2023-03-08T19:06:09;9865630;;;15.49;41.04297
53089;BME280;38968;47.696;17.540;2023-03-08T19:11:12;9864534;;;15.41;41.36133
53089;BME280;38968;47.696;17.540;2023-03-08T19:16:21;9863738;;;15.42;41.54883
53089;BME280;38968;47.696;17.540;2023-03-08T19:21:18;9862791;;;15.24;42.04395
53089;BME280;38968;47.696;17.540;2023-03-08T19:26:17;9863302;;;15.41;41.74609
53089;BME280;38968;47.696;17.540;2023-03-08T19:31:14;9863194;;;15.3;42.13086
53089;BME280;38968;47.696;17.540;2023-03-08T19:36:08;9863462;;;14.98;43.4043
53089;BME280;38968;47.696;17.540;2023-03-08T19:41:08;9862628;;;15.06;42.74805
53089;BME280;38968;47.696;17.540;2023-03-08T19:46:09;9863058;;;14.77;43.67285
53089;BME280;38968;47.696;17.540;2023-03-08T19:51:10;9862512;;;14.8;43.57227
53089;BME280;38968;47.696;17.540;2023-03-08T19:56:17;9862588;;;14.5;44.54102
53089;BME280;38968;47.696;17.540;2023-03-08T20:01:09;9861852;;;14.88;43.64941
53089;BME280;38968;47.696;17.540;2023-03-08T20:06:08;9863860;;;14.58;44.86328
53089;BME280;38968;47.696;17.540;2023-03-08T20:11:08;9864277;;;14.62;44.54102
53089;BME280;38968;47.696;17.540;2023-03-08T20:16:09;9864200;;;14.27;45.39941
53089;BME280;38968;47.696;17.540;2023-03-08T20:21:09;9863285;;;14.67;44.61621
53089;BME280;38968;47.696;17.540;2023-03-08T20:26:09;9864072;;;14.51;45.03027
53089;BME280;38968;47.696;17.540;2023-03-08T20:31:09;9863259;;;14.56;45.42969
53089;BME280;38968;47.696;17.540;2023-03-08T20:36:08;9861698;;;14.53;45.24121
53089;BME280;38968;47.696;17.540;2023-03-08T20:41:12;9861543;;;14.15;46.00293
53089;BME280;38968;47.696;17.540;2023-03-08T20:46:10;9861998;;;14.45;45.42969
53089;BME280;38968;47.696;17.540;2023-03-08T20:51:15;9858570;;;14.31;45.92676
53089;BME280;38968;47.696;17.540;2023-03-08T20:56:13;9858999;;;14.16;46.47852
53089;BME280;38968;47.696;17.540;2023-03-08T21:01:12;9860638;;;14.21;46.48438
53089;BME280;38968;47.696;17.540;2023-03-08T21:06:12;9860767;;;13.97;47.22363
53089;BME280;38968;47.696;17.540;2023-03-08T21:11:10;9861762;;;14.07;47.30469
53089;BME280;38968;47.696;17.540;2023-03-08T21:16:13;9860233;;;14.31;47.06445
53089;BME280;38968;47.696;17.540;2023-03-08T21:21:15;9861147;;;13.91;48.41113
53089;BME280;38968;47.696;17.540;2023-03-08T21:26:08;9860956;;;14.1;48.29395
53089;BME280;38968;47.696;17.540;2023-03-08T21:31:10;9863225;;;13.96;48.96191
53089;BME280;38968;47.696;17.540;2023-03-08T21:36:08;9862808;;;13.92;49.39648
53089;BME280;38968;47.696;17.540;2023-03-08T21:41:21;9863098;;;13.52;50.45215
53089;BME280;38968;47.696;17.540;2023-03-08T21:46:08;9863245;;;13.58;50.52832
53089;BME280;38968;47.696;17.540;2023-03-08T21:51:08;9862965;;;13.78;50.12305
53089;BME280;38968;47.696;17.540;2023-03-08T21:56:12;9862966;;;13.61;50.72754
53089;BME280;38968;47.696;17.540;2023-03-08T22:01:16;9862462;;;13.74;50.62695
53089;BME280;38968;47.696;17.540;2023-03-08T22:06:08;9862895;;;13.57;50.99023
53089;BME280;38968;47.696;17.540;2023-03-08T22:11:07;9862645;;;14.06;49.94727
53089;BME280;38968;47.696;17.540;2023-03-08T22:16:08;9862670;;;13.84;50.59277
53089;BME280;38968;47.696;17.540;2023-03-08T22:21:07;9861062;;;13.9;50.27637
53089;BME280;38968;47.696;17.540;2023-03-08T22:26:09;9860927;;;13.49;51.33887
53089;BME280;38968;47.696;17.540;2023-03-08T22:31:13;9861273;;;13.32;51.7002
53089;BME280;38968;47.696;17.540;2023-03-08T22:36:10;9860766;;;13.46;51.44043
53089;BME280;38968;47.696;17.540;2023-03-08T22:41:16;9860178;;;13.58;51.12988
53089;BME280;38968;47.696;17.540;2023-03-08T22:46:12;9860455;;;13.55;51.28809
53089;BME280;38968;47.696;17.540;2023-03-08T22:51:07;9859706;;;13.65;51.02246
53089;BME280;38968;47.696;17.540;2023-03-08T22:56:15;9858832;;;13.82;50.65918
53089;BME280;38968;47.696;17.540;2023-03-08T23:01:14;9857467;;;13.58;51.39551
53089;BME280;38968;47.696;17.540;2023-03-08T23:06:07;9858114;;;13.51;51.62988
53089;BME280;38968;47.696;17.540;2023-03-08T23:11:08;9858122;;;13.67;51.41602
53089;BME280;38968;47.696;17.540;2023-03-08T23:16:09;9857561;;;13.22;52.61328
53089;BME280;38968;47.696;17.540;2023-03-08T23:21:10;9856020;;;13.67;51.57813
53089;BME280;38968;47.696;17.540;2023-03-08T23:26:09;9857412;;;13.34;52.44238
53089;BME280;38968;47.696;17.540;2023-03-08T23:31:15;9857166;;;13.48;52.14746
53089;BME280;38968;47.696;17.540;2023-03-08T23:36:09;9857090;;;13.29;52.80566
53089;BME280;38968;47.696;17.540;2023-03-08T23:41:08;9856462;;;13.49;52.32227
53089;BME280;38968;47.696;17.540;2023-03-08T23:46:09;9856323;;;13.59;51.96387
53089;BME280;38968;47.696;17.540;2023-03-08T23:51:09;9855541;;;13.57;51.91602
